createdAt,value
2023-01-13T00:01:08.864Z,56.57
2023-01-13T00:03:35.806Z,57.05
2023-01-13T00:06:02.505Z,56.54
2023-01-13T00:08:29.139Z,56.71
2023-01-13T00:10:56.925Z,56.20
2023-01-13T00:13:23.582Z,58.52
2023-01-13T00:16:00.015Z,56.11
2023-01-13T00:18:26.895Z,59.10
2023-01-13T00:21:03.105Z,58.39
2023-01-13T00:23:30.508Z,57.52
2023-01-13T00:26:01.454Z,58.27
2023-01-13T00:28:28.249Z,58.38
2023-01-13T00:30:55.042Z,56.77
2023-01-13T00:33:21.679Z,57.72
2023-01-13T00:35:58.172Z,58.35
2023-01-13T00:38:24.813Z,57.06
2023-01-13T00:41:09.037Z,58.34
2023-01-13T00:43:36.247Z,57.76
2023-01-13T00:46:03.968Z,60.06
2023-01-13T00:48:30.826Z,57.70
2023-01-13T00:51:04.781Z,57.88
2023-01-13T00:53:36.599Z,58.13
2023-01-13T00:56:03.942Z,59.43
2023-01-13T00:58:34.187Z,60.05
2023-01-13T01:01:01.968Z,59.23
2023-01-13T01:03:28.764Z,58.82
2023-01-13T01:05:56.083Z,59.98
2023-01-13T01:08:22.718Z,58.72
2023-01-13T01:10:49.394Z,58.63
2023-01-13T01:13:16.038Z,58.38
2023-01-13T01:15:43.560Z,58.38
2023-01-13T01:18:10.216Z,59.11
2023-01-13T01:20:37.455Z,58.28
2023-01-13T01:23:04.365Z,57.73
2023-01-13T01:25:32.673Z,58.15
2023-01-13T01:27:59.845Z,57.88
2023-01-13T01:30:26.513Z,58.24
2023-01-13T01:32:53.160Z,56.50
2023-01-13T01:35:19.813Z,56.44
2023-01-13T01:37:46.466Z,55.59
2023-01-13T01:40:13.263Z,55.85
2023-01-13T01:42:40.222Z,55.95
2023-01-13T01:45:20.807Z,55.66
2023-01-13T01:47:48.547Z,55.76
2023-01-13T01:50:15.423Z,55.18
2023-01-13T01:52:43.240Z,55.10
2023-01-13T01:55:18.220Z,57.13
2023-01-13T01:58:08.851Z,55.74
2023-01-13T02:00:35.506Z,54.87
2023-01-13T02:03:02.162Z,54.11
2023-01-13T02:05:28.808Z,55.52
2023-01-13T02:07:56.947Z,53.30
2023-01-13T02:10:25.142Z,53.45
2023-01-13T02:12:51.783Z,53.55
2023-01-13T02:15:25.080Z,54.40
2023-01-13T02:18:13.536Z,54.05
2023-01-13T02:20:59.702Z,55.08
2023-01-13T02:23:44.457Z,55.98
2023-01-13T02:26:50.698Z,55.98
2023-01-13T02:29:32.786Z,56.12
2023-01-13T02:32:04.088Z,56.37
2023-01-13T02:34:39.141Z,57.16
2023-01-13T02:37:27.478Z,56.49
2023-01-13T02:40:02.612Z,56.27
2023-01-13T02:42:34.536Z,56.29
2023-01-13T02:45:11.726Z,56.66
2023-01-13T02:47:38.761Z,56.83
2023-01-13T02:50:10.531Z,56.14
2023-01-13T02:52:44.693Z,56.03
2023-01-13T02:55:20.026Z,55.98
2023-01-13T02:57:46.673Z,55.15
2023-01-13T03:00:13.627Z,55.24
2023-01-13T03:02:40.297Z,54.62
2023-01-13T03:05:07.226Z,54.30
2023-01-13T03:07:59.098Z,55.28
2023-01-13T03:10:31.843Z,54.51
2023-01-13T03:13:19.970Z,55.23
2023-01-13T03:16:05.394Z,55.66
2023-01-13T03:18:53.240Z,56.12
2023-01-13T03:21:20.989Z,55.74
2023-01-13T03:23:55.648Z,54.81
2023-01-13T03:26:28.331Z,55.41
2023-01-13T03:29:19.806Z,55.34
2023-01-13T03:32:11.875Z,55.72
2023-01-13T03:34:48.437Z,56.64
2023-01-13T03:37:15.094Z,56.38
2023-01-13T03:39:44.033Z,57.19
2023-01-13T03:42:13.294Z,57.00
2023-01-13T03:44:53.872Z,58.12
2023-01-13T03:47:58.893Z,56.85
2023-01-13T03:50:49.592Z,56.87
2023-01-13T03:53:23.620Z,56.11
2023-01-13T03:55:59.723Z,57.16
2023-01-13T03:58:29.204Z,56.67
2023-01-13T04:01:01.722Z,56.79
2023-01-13T04:03:46.723Z,57.40
2023-01-13T04:06:19.734Z,57.69
2023-01-13T04:08:52.557Z,58.19
2023-01-13T04:11:23.497Z,59.25
2023-01-13T04:13:50.155Z,60.17
2023-01-13T04:16:16.744Z,60.74
2023-01-13T04:18:43.377Z,61.09
2023-01-13T04:21:10.021Z,62.06
2023-01-13T04:23:36.700Z,61.95
2023-01-13T04:26:03.381Z,62.15
2023-01-13T04:28:30.030Z,62.33
2023-01-13T04:30:56.742Z,62.78
2023-01-13T04:33:23.412Z,63.42
2023-01-13T04:35:50.046Z,63.27
2023-01-13T04:38:17.902Z,63.72
2023-01-13T04:40:44.686Z,65.25
2023-01-13T04:43:11.494Z,66.74
2023-01-13T04:45:38.163Z,66.97
2023-01-13T04:48:04.978Z,67.81
2023-01-13T04:50:31.653Z,67.01
2023-01-13T04:52:58.278Z,67.57
2023-01-13T04:55:25.021Z,67.26
2023-01-13T04:57:51.773Z,67.54
2023-01-13T05:00:20.021Z,67.74
2023-01-13T05:02:46.640Z,66.93
2023-01-13T05:05:13.482Z,67.63
2023-01-13T05:07:40.087Z,67.78
2023-01-13T05:10:06.897Z,67.97
2023-01-13T05:12:33.560Z,67.88
2023-01-13T05:15:00.219Z,67.61
2023-01-13T05:17:27.028Z,67.53
2023-01-13T05:19:53.724Z,67.66
2023-01-13T05:22:20.390Z,66.65
2023-01-13T05:24:46.985Z,66.59
2023-01-13T05:27:13.647Z,65.66
2023-01-13T05:29:40.290Z,66.30
2023-01-13T05:32:06.923Z,66.51
2023-01-13T05:34:33.562Z,66.66
2023-01-13T05:37:00.242Z,66.47
2023-01-13T05:39:29.895Z,67.33
2023-01-13T05:41:56.556Z,66.53
2023-01-13T05:44:23.214Z,66.77
2023-01-13T05:46:49.897Z,66.35
2023-01-13T05:49:16.634Z,66.11
2023-01-13T05:51:43.313Z,66.47
2023-01-13T05:54:09.959Z,66.29
2023-01-13T05:56:36.585Z,67.07
2023-01-13T05:59:03.244Z,67.56
2023-01-13T06:01:29.907Z,66.59
2023-01-13T06:03:56.593Z,66.29
2023-01-13T06:06:23.280Z,66.48
2023-01-13T06:08:49.882Z,67.36
2023-01-13T06:11:16.534Z,67.36
2023-01-13T06:13:43.187Z,66.86
2023-01-13T06:16:09.945Z,66.53
2023-01-13T06:18:36.577Z,67.37
2023-01-13T06:21:03.387Z,66.98
2023-01-13T06:23:30.048Z,67.01
2023-01-13T06:26:18.910Z,66.93
2023-01-13T06:28:45.608Z,66.78
2023-01-13T06:31:12.341Z,66.92
2023-01-13T06:33:50.353Z,67.38
2023-01-13T06:36:19.511Z,67.59
2023-01-13T06:38:47.280Z,67.26
2023-01-13T06:41:13.958Z,67.97
2023-01-13T06:43:40.642Z,67.73
2023-01-13T06:46:07.249Z,66.37
2023-01-13T06:48:34.166Z,66.24
2023-01-13T06:51:04.302Z,66.98
2023-01-13T06:53:31.181Z,68.58
2023-01-13T06:55:57.839Z,68.28
2023-01-13T06:58:24.436Z,69.93
2023-01-13T07:00:51.106Z,70.21
2023-01-13T07:03:17.861Z,70.04
2023-01-13T07:05:52.385Z,70.19
2023-01-13T07:08:18.983Z,70.36
2023-01-13T07:10:45.596Z,69.99
2023-01-13T07:13:12.235Z,71.08
2023-01-13T07:15:38.852Z,71.77
2023-01-13T07:18:05.496Z,71.90
2023-01-13T07:20:32.172Z,70.66
2023-01-13T07:22:58.859Z,69.55
2023-01-13T07:25:27.595Z,71.05
2023-01-13T07:27:56.075Z,73.04
2023-01-13T07:30:22.732Z,71.67
2023-01-13T07:32:49.372Z,71.70
2023-01-13T07:35:16.005Z,70.87
2023-01-13T07:37:42.679Z,70.94
2023-01-13T07:40:09.752Z,70.40
2023-01-13T07:42:38.333Z,70.27
2023-01-13T07:45:05.421Z,70.45
2023-01-13T07:47:32.092Z,69.69
2023-01-13T07:49:58.708Z,69.26
2023-01-13T07:52:25.350Z,69.12
2023-01-13T07:54:52.031Z,68.87
2023-01-13T07:57:18.864Z,68.21
2023-01-13T07:59:45.544Z,68.26
2023-01-13T08:02:13.139Z,69.13
2023-01-13T08:04:40.072Z,68.57
2023-01-13T08:07:06.732Z,68.83
2023-01-13T08:09:33.483Z,68.33
2023-01-13T08:12:00.076Z,68.31
2023-01-13T08:14:26.713Z,68.09
2023-01-13T08:16:53.352Z,68.36
2023-01-13T08:19:19.940Z,68.31
2023-01-13T08:21:46.606Z,68.33
2023-01-13T08:24:13.312Z,67.95
2023-01-13T08:26:39.928Z,67.69
2023-01-13T08:29:06.525Z,67.14
2023-01-13T08:31:33.397Z,66.72
2023-01-13T08:34:00.105Z,67.42
2023-01-13T08:36:26.778Z,67.38
2023-01-13T08:38:53.395Z,67.07
2023-01-13T08:41:20.033Z,67.35
2023-01-13T08:43:46.645Z,67.27
2023-01-13T08:46:13.343Z,67.90
2023-01-13T08:48:40.095Z,67.28
2023-01-13T08:51:07.713Z,67.99
2023-01-13T08:53:34.399Z,68.18
2023-01-13T08:56:01.112Z,67.16
2023-01-13T08:58:27.819Z,68.58
2023-01-13T09:00:54.613Z,68.79
2023-01-13T09:03:21.360Z,68.57
2023-01-13T09:05:48.041Z,67.96
2023-01-13T09:08:14.694Z,68.20
2023-01-13T09:10:41.349Z,67.26
2023-01-13T09:13:11.670Z,66.62
2023-01-13T09:15:39.704Z,67.09
2023-01-13T09:18:06.371Z,66.90
2023-01-13T09:20:33.052Z,66.09
2023-01-13T09:22:59.751Z,65.34
2023-01-13T09:25:26.452Z,65.54
2023-01-13T09:27:53.084Z,65.32
2023-01-13T09:30:19.830Z,66.04
2023-01-13T09:32:46.489Z,65.76
2023-01-13T09:35:13.339Z,65.98
2023-01-13T09:37:40.481Z,65.38
2023-01-13T09:40:17.658Z,64.92
2023-01-13T09:42:49.349Z,64.74
2023-01-13T09:45:39.568Z,64.72
2023-01-13T09:48:32.346Z,65.45
2023-01-13T09:51:14.957Z,65.52
2023-01-13T09:53:45.817Z,66.48
2023-01-13T09:56:12.506Z,66.81
2023-01-13T09:58:39.185Z,66.18
2023-01-13T10:01:16.292Z,67.04
2023-01-13T10:03:42.992Z,67.47
2023-01-13T10:06:17.486Z,66.37
2023-01-13T10:08:45.282Z,65.99
2023-01-13T10:11:19.507Z,65.94
2023-01-13T10:13:46.151Z,65.95
2023-01-13T10:16:31.376Z,66.56
2023-01-13T10:19:16.607Z,65.75
2023-01-13T10:21:49.279Z,66.50
2023-01-13T10:24:27.968Z,65.31
2023-01-13T10:26:54.442Z,65.28
2023-01-13T10:29:26.182Z,64.78
2023-01-13T10:31:53.785Z,64.36
2023-01-13T10:34:20.579Z,64.31
2023-01-13T10:37:03.894Z,64.11
2023-01-13T10:39:39.494Z,64.66
2023-01-13T10:42:06.970Z,64.64
2023-01-13T10:44:46.223Z,64.67
2023-01-13T10:47:19.943Z,65.56
2023-01-13T10:49:46.606Z,65.86
2023-01-13T10:52:30.186Z,65.98
2023-01-13T10:54:57.892Z,65.35
2023-01-13T10:57:25.826Z,64.38
2023-01-13T10:59:52.563Z,64.12
2023-01-13T11:02:25.805Z,63.64
2023-01-13T11:04:52.908Z,63.29
2023-01-13T11:07:28.208Z,64.49
2023-01-13T11:10:21.378Z,64.48
2023-01-13T11:13:03.068Z,63.49
2023-01-13T11:15:38.494Z,63.59
2023-01-13T11:18:09.700Z,64.06
2023-01-13T11:20:37.187Z,63.79
2023-01-13T11:23:15.686Z,63.32
2023-01-13T11:25:44.617Z,63.49
2023-01-13T11:28:19.282Z,63.66
2023-01-13T11:31:04.444Z,63.83
2023-01-13T11:33:35.240Z,63.92
2023-01-13T11:36:30.549Z,62.87
2023-01-13T11:39:11.563Z,62.38
2023-01-13T11:41:47.423Z,61.66
2023-01-13T11:44:27.563Z,61.98
2023-01-13T11:46:54.259Z,62.51
2023-01-13T11:49:27.018Z,63.16
2023-01-13T11:52:21.389Z,62.47
2023-01-13T11:55:02.019Z,62.08
2023-01-13T11:58:00.741Z,61.39
2023-01-13T12:00:32.400Z,61.91
2023-01-13T12:03:25.209Z,62.35
2023-01-13T12:06:17.664Z,61.43
2023-01-13T12:09:12.004Z,63.02
2023-01-13T12:11:59.894Z,63.57
2023-01-13T12:14:39.637Z,63.43
2023-01-13T12:17:08.484Z,63.86
2023-01-13T12:19:35.700Z,63.34
2023-01-13T12:22:24.258Z,62.36
2023-01-13T12:24:54.398Z,61.78
2023-01-13T12:27:35.558Z,61.22
2023-01-13T12:30:02.476Z,61.87
2023-01-13T12:32:35.153Z,62.14
2023-01-13T12:35:16.983Z,61.83
2023-01-13T12:38:04.035Z,62.84
2023-01-13T12:40:41.465Z,63.66
2023-01-13T12:43:16.847Z,62.21
2023-01-13T12:45:43.510Z,62.06
2023-01-13T12:48:44.845Z,60.22
2023-01-13T12:51:24.656Z,60.92
2023-01-13T12:53:51.432Z,60.35
2023-01-13T12:56:21.029Z,59.30
2023-01-13T12:58:47.698Z,58.31
2023-01-13T13:01:14.603Z,56.93
2023-01-13T13:03:41.300Z,56.45
2023-01-13T13:06:12.241Z,55.84
2023-01-13T13:09:15.410Z,55.64
2023-01-13T13:11:48.414Z,55.20
2023-01-13T13:14:15.134Z,55.30
2023-01-13T13:16:49.050Z,55.14
2023-01-13T13:19:18.740Z,55.72
2023-01-13T13:22:13.101Z,55.55
2023-01-13T13:24:43.887Z,55.27
2023-01-13T13:27:46.960Z,54.27
2023-01-13T13:30:36.169Z,54.34
2023-01-13T13:33:11.951Z,53.54
2023-01-13T13:35:43.275Z,54.10
2023-01-13T13:38:25.003Z,53.50
2023-01-13T13:40:51.612Z,53.65
2023-01-13T13:43:18.261Z,53.81
2023-01-13T13:45:51.400Z,53.49
2023-01-13T13:48:24.616Z,54.35
2023-01-13T13:50:56.647Z,54.08
2023-01-13T13:53:28.269Z,53.89
2023-01-13T13:55:56.318Z,53.41
2023-01-13T13:58:23.095Z,53.37
2023-01-13T14:00:49.791Z,53.91
2023-01-13T14:03:27.312Z,54.24
2023-01-13T14:05:58.931Z,53.32
2023-01-13T14:08:25.973Z,52.95
2023-01-13T14:10:52.810Z,53.15
2023-01-13T14:13:25.348Z,53.26
2023-01-13T14:16:02.810Z,53.80
2023-01-13T14:18:31.172Z,54.78
2023-01-13T14:21:03.024Z,55.46
2023-01-13T14:23:31.281Z,55.22
2023-01-13T14:26:08.529Z,54.94
2023-01-13T14:28:38.569Z,55.59
2023-01-13T14:31:08.489Z,55.96
2023-01-13T14:33:42.032Z,56.45
2023-01-13T14:36:22.605Z,57.52
2023-01-13T14:39:05.191Z,57.99
2023-01-13T14:41:38.729Z,58.49
2023-01-13T14:44:33.594Z,58.66
2023-01-13T14:47:04.755Z,59.15
2023-01-13T14:49:51.854Z,59.19
2023-01-13T14:52:23.060Z,58.48
2023-01-13T14:55:08.309Z,58.03
2023-01-13T14:57:38.748Z,57.57
2023-01-13T15:00:14.461Z,56.91
2023-01-13T15:02:49.967Z,56.88
2023-01-13T15:05:19.358Z,58.26
2023-01-13T15:08:10.316Z,58.59
2023-01-13T15:10:54.844Z,59.67
2023-01-13T15:13:26.315Z,59.48
2023-01-13T15:15:56.954Z,59.73
2023-01-13T15:18:23.655Z,59.84
2023-01-13T15:20:50.264Z,57.42
2023-01-13T15:23:17.829Z,57.51
2023-01-13T15:25:46.232Z,58.02
2023-01-13T15:28:23.724Z,58.51
2023-01-13T15:30:51.093Z,58.81
2023-01-13T15:33:17.877Z,59.89
2023-01-13T15:35:46.089Z,60.66
2023-01-13T15:38:13.990Z,61.28
2023-01-13T15:40:41.220Z,60.89
2023-01-13T15:43:12.423Z,60.94
2023-01-13T15:45:39.140Z,61.13
2023-01-13T15:48:07.925Z,61.51
2023-01-13T15:50:34.533Z,62.01
2023-01-13T15:53:03.012Z,61.44
2023-01-13T15:55:30.270Z,60.81
2023-01-13T15:57:56.971Z,59.74
2023-01-13T16:00:23.662Z,57.32
2023-01-13T16:02:50.351Z,55.27
2023-01-13T16:05:17.106Z,56.01
2023-01-13T16:07:43.745Z,55.71
2023-01-13T16:10:20.460Z,55.70
2023-01-13T16:12:47.181Z,55.51
2023-01-13T16:15:14.624Z,54.84
2023-01-13T16:17:41.239Z,55.08
2023-01-13T16:20:13.846Z,55.10
2023-01-13T16:22:40.521Z,54.53
2023-01-13T16:25:10.095Z,54.12
2023-01-13T16:27:36.695Z,54.43
2023-01-13T16:30:03.404Z,54.32
2023-01-13T16:32:30.012Z,54.75
2023-01-13T16:34:56.979Z,54.92
2023-01-13T16:37:25.644Z,54.32
2023-01-13T16:39:53.229Z,55.08
2023-01-13T16:42:21.024Z,54.99
2023-01-13T16:44:47.664Z,55.72
2023-01-13T16:47:15.017Z,55.59
2023-01-13T16:49:41.680Z,56.11
2023-01-13T16:52:08.294Z,56.09
2023-01-13T16:54:34.961Z,56.17
2023-01-13T16:57:01.698Z,56.31
2023-01-13T16:59:28.314Z,56.54
2023-01-13T17:01:55.118Z,56.59
2023-01-13T17:04:22.520Z,56.88
2023-01-13T17:07:02.968Z,56.15
2023-01-13T17:09:29.752Z,56.50
2023-01-13T17:11:56.524Z,55.44
2023-01-13T17:14:23.261Z,55.27
2023-01-13T17:16:51.143Z,55.66
2023-01-13T17:19:18.455Z,56.22
2023-01-13T17:21:45.048Z,55.94
2023-01-13T17:24:11.936Z,55.96
2023-01-13T17:26:43.218Z,56.22
2023-01-13T17:29:17.644Z,55.66
2023-01-13T17:31:44.328Z,55.69
2023-01-13T17:34:11.662Z,55.46
2023-01-13T17:36:38.532Z,55.18
2023-01-13T17:39:05.487Z,55.74
2023-01-13T17:41:32.148Z,55.26
2023-01-13T17:43:58.837Z,55.71
2023-01-13T17:46:25.468Z,55.91
2023-01-13T17:48:52.347Z,54.79
2023-01-13T17:51:19.384Z,54.16
2023-01-13T17:53:46.240Z,54.24
2023-01-13T17:56:13.810Z,53.80
2023-01-13T17:58:40.563Z,54.19
2023-01-13T18:01:09.205Z,54.76
2023-01-13T18:03:36.135Z,54.35
2023-01-13T18:06:04.260Z,52.77
2023-01-13T18:08:31.009Z,52.40
2023-01-13T18:10:57.765Z,51.40
2023-01-13T18:13:24.376Z,53.77
2023-01-13T18:16:02.294Z,51.68
2023-01-13T18:18:29.207Z,49.51
2023-01-13T18:20:56.016Z,47.55
2023-01-13T18:23:22.774Z,48.97
2023-01-13T18:25:49.377Z,47.46
2023-01-13T18:28:16.192Z,47.45
2023-01-13T18:30:42.841Z,47.57
2023-01-13T18:33:09.538Z,48.01
2023-01-13T18:35:38.530Z,48.92
2023-01-13T18:38:05.301Z,48.53
2023-01-13T18:40:32.052Z,48.51
2023-01-13T18:42:58.678Z,47.65
2023-01-13T18:45:30.153Z,47.25
2023-01-13T18:47:58.274Z,46.73
2023-01-13T18:50:24.899Z,46.75
2023-01-13T18:52:52.164Z,47.83
2023-01-13T18:55:18.848Z,51.56
2023-01-13T18:57:45.803Z,52.65
2023-01-13T19:00:14.434Z,54.39
2023-01-13T19:02:41.183Z,54.25
2023-01-13T19:05:08.249Z,54.38
2023-01-13T19:07:35.015Z,54.66
2023-01-13T19:10:02.214Z,54.93
2023-01-13T19:12:29.010Z,54.17
2023-01-13T19:14:56.037Z,53.27
2023-01-13T19:17:23.440Z,53.71
2023-01-13T19:19:51.676Z,53.44
2023-01-13T19:22:20.188Z,53.52
2023-01-13T19:24:46.916Z,52.23
2023-01-13T19:27:14.086Z,51.96
2023-01-13T19:29:50.937Z,52.59
2023-01-13T19:32:20.245Z,53.57
2023-01-13T19:34:47.016Z,53.58
2023-01-13T19:37:13.648Z,54.16
2023-01-13T19:39:40.430Z,53.21
2023-01-13T19:42:07.160Z,50.03
2023-01-13T19:44:33.776Z,49.91
2023-01-13T19:47:00.423Z,50.09
2023-01-13T19:49:27.155Z,52.76
2023-01-13T19:51:53.899Z,53.43
2023-01-13T19:54:20.707Z,54.19
2023-01-13T19:56:47.510Z,55.63
2023-01-13T19:59:14.178Z,56.23
2023-01-13T20:01:40.939Z,55.80
2023-01-13T20:04:07.616Z,56.10
2023-01-13T20:06:34.489Z,55.97
2023-01-13T20:09:01.280Z,55.81
2023-01-13T20:11:27.982Z,56.56
2023-01-13T20:13:54.610Z,57.16
2023-01-13T20:16:21.295Z,57.00
2023-01-13T20:18:51.124Z,56.32
2023-01-13T20:21:17.862Z,56.62
2023-01-13T20:23:44.493Z,56.05
2023-01-13T20:26:11.185Z,57.05
2023-01-13T20:28:37.924Z,57.34
2023-01-13T20:31:08.357Z,59.22
2023-01-13T20:33:35.436Z,58.29
2023-01-13T20:36:02.161Z,57.40
2023-01-13T20:38:28.753Z,59.21
2023-01-13T20:41:01.497Z,57.88
2023-01-13T20:43:28.200Z,57.95
2023-01-13T20:45:54.864Z,55.92
2023-01-13T20:48:21.516Z,56.35
2023-01-13T20:50:52.851Z,56.98
2023-01-13T20:53:19.507Z,57.87
2023-01-13T20:55:49.050Z,57.46
2023-01-13T20:58:15.701Z,57.14
2023-01-13T21:00:42.392Z,57.83
2023-01-13T21:03:08.983Z,56.71
2023-01-13T21:05:36.188Z,56.44
2023-01-13T21:08:02.865Z,55.68
2023-01-13T21:10:29.513Z,55.50
2023-01-13T21:12:56.174Z,55.92
2023-01-13T21:15:22.841Z,56.71
2023-01-13T21:17:50.781Z,56.56
2023-01-13T21:20:17.488Z,56.97
2023-01-13T21:22:47.940Z,56.63
2023-01-13T21:25:15.273Z,57.46
2023-01-13T21:27:41.880Z,57.50
2023-01-13T21:30:08.956Z,57.83
2023-01-13T21:32:35.567Z,57.59
2023-01-13T21:35:02.176Z,56.87
2023-01-13T21:37:28.797Z,55.71
2023-01-13T21:39:55.408Z,56.30
2023-01-13T21:42:22.083Z,56.13
2023-01-13T21:44:48.780Z,56.44
2023-01-13T21:47:16.143Z,57.10
2023-01-13T21:49:42.870Z,58.18
2023-01-13T21:52:10.204Z,58.25
2023-01-13T21:54:36.834Z,57.51
2023-01-13T21:57:03.505Z,57.12
2023-01-13T21:59:30.141Z,56.92
2023-01-13T22:02:13.225Z,57.21
2023-01-13T22:04:43.428Z,56.81
2023-01-13T22:07:10.339Z,57.92
2023-01-13T22:09:36.977Z,57.32
2023-01-13T22:12:03.876Z,57.50
2023-01-13T22:14:30.711Z,58.53
2023-01-13T22:16:57.382Z,58.98
2023-01-13T22:19:24.067Z,57.65
2023-01-13T22:21:50.902Z,58.40
2023-01-13T22:24:17.566Z,58.40
2023-01-13T22:26:44.217Z,57.48
2023-01-13T22:29:11.000Z,58.06
2023-01-13T22:31:38.017Z,58.26
2023-01-13T22:34:04.719Z,58.03
2023-01-13T22:36:31.397Z,58.39
2023-01-13T22:38:58.053Z,58.46
2023-01-13T22:41:24.652Z,59.20
2023-01-13T22:43:51.441Z,59.38
2023-01-13T22:46:18.245Z,59.46
2023-01-13T22:48:45.095Z,59.44
2023-01-13T22:51:13.215Z,59.34
2023-01-13T22:53:39.996Z,60.10
2023-01-13T22:56:06.954Z,60.48
2023-01-13T22:58:33.594Z,60.83
2023-01-13T23:01:11.199Z,59.94
2023-01-13T23:03:37.887Z,60.58
2023-01-13T23:06:04.770Z,60.34
2023-01-13T23:08:32.487Z,60.70
2023-01-13T23:11:07.155Z,60.25
2023-01-13T23:13:34.221Z,60.13
2023-01-13T23:16:04.429Z,60.13
2023-01-13T23:18:31.589Z,60.63
2023-01-13T23:21:10.627Z,59.83
2023-01-13T23:23:37.358Z,59.90
2023-01-13T23:26:04.313Z,60.75
2023-01-13T23:28:30.951Z,60.63
2023-01-13T23:30:57.692Z,60.37
2023-01-13T23:33:24.356Z,59.85
2023-01-13T23:36:01.876Z,60.08
2023-01-13T23:38:29.043Z,60.20
2023-01-13T23:40:55.895Z,59.61
2023-01-13T23:43:22.736Z,60.55
2023-01-13T23:45:49.604Z,60.39
2023-01-13T23:48:16.269Z,60.98
2023-01-13T23:50:42.951Z,60.63
2023-01-13T23:53:09.625Z,60.51
2023-01-13T23:55:36.358Z,60.92
2023-01-13T23:58:03.027Z,60.77
